Time;durP1;ratioP1;P1;durP2;ratioP2;P2;SDS_P1;SDS_P2;PMS_P1;PMS_P2;Temp;Humidity;BMP_temperature;BMP_pressure;BME280_temperature;BME280_humidity;BME280_pressure;Samples;Min_cycle;Max_cycle;Signal;HPM_P1;HPM_P2
2023/10/22 00:00:35;;;;;;;1.10;1.10;;;;;;;13.67;71.87;96960.84;4985799;28;20050;-62
2023/10/22 00:03:02;;;;;;;1.20;1.20;;;;;;;13.79;71.13;96952.13;4985629;28;20051;-62
2023/10/22 00:05:29;;;;;;;1.20;1.20;;;;;;;13.74;69.61;96965.66;4985616;28;20105;-61
2023/10/22 00:07:56;;;;;;;1.20;1.20;;;;;;;13.84;68.92;96984.38;4984180;28;20054;-62
2023/10/22 00:10:22;;;;;;;1.10;1.10;;;;;;;13.92;68.26;96977.63;4985132;28;20058;-62
2023/10/22 00:12:49;;;;;;;1.15;1.15;;;;;;;13.98;68.27;96970.47;4985232;28;20046;-62
2023/10/22 00:15:16;;;;;;;1.20;1.20;;;;;;;13.88;69.18;96965.69;4985067;28;20050;-62
2023/10/22 00:17:42;;;;;;;1.13;1.13;;;;;;;13.11;71.62;96932.78;4985575;28;20129;-62
2023/10/22 00:20:10;;;;;;;1.20;1.20;;;;;;;13.32;71.44;96955.94;4984929;28;20084;-62
2023/10/22 00:22:37;;;;;;;1.33;1.33;;;;;;;13.55;71.98;96997.38;4985231;28;20422;-61
2023/10/22 00:25:05;;;;;;;1.40;1.40;;;;;;;13.25;71.88;96955.91;4983665;28;20065;-61
2023/10/22 00:27:32;;;;;;;1.10;1.10;;;;;;;13.54;71.61;96985.47;4984102;28;20146;-61
2023/10/22 00:30:00;;;;;;;1.10;1.10;;;;;;;13.82;71.35;97006.22;4985029;28;20054;-62
2023/10/22 00:32:27;;;;;;;1.20;1.20;;;;;;;13.91;70.84;97010.25;4985347;28;20090;-62
2023/10/22 00:34:54;;;;;;;1.20;1.20;;;;;;;13.94;70.58;96981.59;4985270;28;20127;-61
2023/10/22 00:37:21;;;;;;;1.20;1.20;;;;;;;13.95;70.50;96979.63;4985164;28;20438;-62
2023/10/22 00:39:48;;;;;;;1.40;1.40;;;;;;;14.10;69.82;96986.84;4984677;28;20054;-62
2023/10/22 00:42:14;;;;;;;1.10;1.10;;;;;;;14.02;69.47;96976.88;4983175;28;20068;-62
2023/10/22 00:44:41;;;;;;;1.00;1.00;;;;;;;14.03;68.99;96972.88;4983706;28;20054;-61
2023/10/22 00:47:15;;;;;;;1.20;1.20;;;;;;;13.98;70.15;96984.41;4984842;28;20134;-63
2023/10/22 00:49:42;;;;;;;1.20;1.20;;;;;;;14.03;70.56;96964.53;4983545;28;20380;-61
2023/10/22 00:52:14;;;;;;;1.20;1.20;;;;;;;14.02;70.45;96926.75;4984868;28;20504;-61
2023/10/22 00:54:40;;;;;;;1.20;1.20;;;;;;;14.24;70.23;96945.06;4984447;28;20042;-62
2023/10/22 00:57:08;;;;;;;1.30;1.30;;;;;;;14.47;69.29;96942.72;4984737;28;20502;-62
2023/10/22 00:59:35;;;;;;;1.30;1.30;;;;;;;14.06;68.93;96860.69;4984587;28;20544;-62
2023/10/22 01:02:02;;;;;;;1.30;1.30;;;;;;;14.47;67.88;96898.94;4983207;28;20062;-62
2023/10/22 01:04:30;;;;;;;1.20;1.20;;;;;;;14.96;67.45;96954.66;4999675;28;20066;-62
2023/10/22 01:06:57;;;;;;;1.40;1.40;;;;;;;14.93;67.40;96949.88;4984945;28;20042;-62
2023/10/22 01:09:24;;;;;;;1.25;1.25;;;;;;;14.95;67.47;96971.78;4983948;28;20563;-62
2023/10/22 01:12:02;;;;;;;1.40;1.40;;;;;;;14.72;68.65;96974.19;4984749;28;20142;-62
2023/10/22 01:14:29;;;;;;;1.30;1.30;;;;;;;14.25;70.06;96980.13;4985066;28;20046;-62
2023/10/22 01:16:57;;;;;;;1.38;1.38;;;;;;;14.01;70.88;96976.06;4984834;28;20055;-62
2023/10/22 01:19:24;;;;;;;1.40;1.40;;;;;;;13.19;70.94;96873.22;4984561;28;20065;-63
2023/10/22 01:21:51;;;;;;;1.30;1.30;;;;;;;13.77;70.95;96976.78;4973103;28;20058;-61
2023/10/22 01:24:17;;;;;;;1.10;1.10;;;;;;;13.49;71.13;96944.09;4964886;28;20082;-62
2023/10/22 01:26:45;;;;;;;1.27;1.27;;;;;;;14.08;70.58;96997.56;4963530;28;20051;-62
2023/10/22 01:29:12;;;;;;;1.13;1.13;;;;;;;13.99;70.78;96999.94;4964889;28;20054;-62
2023/10/22 01:31:39;;;;;;;1.25;1.25;;;;;;;13.72;70.36;96946.53;4965052;28;20494;-62
2023/10/22 01:34:06;;;;;;;1.10;1.10;;;;;;;13.50;70.46;96956.81;4964917;28;20109;-62
2023/10/22 01:36:32;;;;;;;1.20;1.20;;;;;;;13.47;70.14;96946.47;4964835;28;20528;-62
2023/10/22 01:38:59;;;;;;;1.20;1.20;;;;;;;14.02;69.67;97002.72;4965123;28;20055;-62
2023/10/22 01:41:26;;;;;;;1.15;1.15;;;;;;;13.46;70.08;96916.25;4965228;28;20063;-62
2023/10/22 01:43:53;;;;;;;1.30;1.30;;;;;;;14.01;70.52;97003.91;4964865;28;20042;-62
2023/10/22 01:46:20;;;;;;;1.10;1.10;;;;;;;13.66;71.07;96954.50;4976338;28;20061;-62
2023/10/22 01:48:47;;;;;;;1.20;1.20;;;;;;;13.73;70.63;96964.03;4984342;28;20138;-62
2023/10/22 01:51:14;;;;;;;1.10;1.10;;;;;;;14.03;70.99;97028.59;4984868;28;20082;-62
2023/10/22 01:53:42;;;;;;;1.23;1.23;;;;;;;14.16;70.63;97013.13;4984910;28;20054;-62
2023/10/22 01:56:09;;;;;;;1.20;1.20;;;;;;;14.15;69.99;96998.38;4986467;28;20066;-62
2023/10/22 01:58:36;;;;;;;1.30;1.30;;;;;;;14.40;69.63;97009.63;4986593;28;20591;-62
2023/10/22 02:01:04;;;;;;;1.45;1.45;;;;;;;14.26;68.82;96945.47;4987279;28;20050;-62
2023/10/22 02:03:33;;;;;;;1.30;1.30;;;;;;;13.50;68.88;96828.00;4987894;28;20054;-62
2023/10/22 02:06:01;;;;;;;1.30;1.30;;;;;;;14.64;69.14;96986.53;4987791;28;20057;-62
2023/10/22 02:08:28;;;;;;;1.20;1.20;;;;;;;14.72;69.11;96988.94;4987748;28;20128;-63
2023/10/22 02:10:54;;;;;;;1.30;1.30;;;;;;;14.69;68.98;97000.06;4985750;28;20488;-63
2023/10/22 02:13:21;;;;;;;1.33;1.33;;;;;;;14.46;69.50;96955.06;4987570;28;20056;-63
2023/10/22 02:15:48;;;;;;;1.20;1.20;;;;;;;14.85;68.66;96980.94;4985905;28;20054;-62
2023/10/22 02:18:15;;;;;;;1.40;1.40;;;;;;;15.03;68.29;96982.53;4987493;28;20058;-62
2023/10/22 02:21:00;;;;;;;1.40;1.40;;;;;;;15.22;67.80;97003.63;4987354;28;20089;-62
2023/10/22 02:23:27;;;;;;;1.40;1.40;;;;;;;15.14;67.41;96988.09;4987710;28;20084;-63
2023/10/22 02:25:54;;;;;;;1.33;1.33;;;;;;;15.39;66.82;97004.81;4987508;28;20093;-62
2023/10/22 02:28:21;;;;;;;1.30;1.30;;;;;;;15.41;66.79;97006.03;4987025;28;20484;-62
2023/10/22 02:30:48;;;;;;;1.30;1.30;;;;;;;15.46;66.98;97000.00;4985385;28;20082;-63
2023/10/22 02:33:15;;;;;;;1.30;1.30;;;;;;;15.38;66.84;97004.00;4985998;28;20066;-63
2023/10/22 02:35:46;;;;;;;1.40;1.40;;;;;;;14.75;66.79;96898.91;4987390;28;20058;-62
2023/10/22 02:38:15;;;;;;;1.50;1.50;;;;;;;15.12;66.90;96976.53;4987261;28;20144;-62
2023/10/22 02:40:43;;;;;;;1.50;1.50;;;;;;;14.46;67.46;96875.03;4987358;28;20066;-63
2023/10/22 02:43:11;;;;;;;1.35;1.35;;;;;;;14.80;68.67;96995.28;4987187;28;20085;-62
2023/10/22 02:45:47;;;;;;;1.17;1.17;;;;;;;14.54;70.08;97004.84;4987065;28;20046;-63
2023/10/22 02:48:14;;;;;;;1.30;1.30;;;;;;;14.50;69.37;96983.72;4987159;28;20074;-62
2023/10/22 02:50:41;;;;;;;1.30;1.30;;;;;;;14.92;68.85;97014.44;4986864;28;20501;-62
2023/10/22 02:53:08;;;;;;;1.30;1.30;;;;;;;14.78;68.72;97029.16;4985338;28;20062;-62
2023/10/22 02:55:35;;;;;;;1.30;1.30;;;;;;;14.59;70.31;97039.91;5001717;28;20069;-62
2023/10/22 02:58:01;;;;;;;1.25;1.25;;;;;;;14.77;69.97;97024.78;4987231;28;20432;-62
2023/10/22 03:00:28;;;;;;;1.40;1.40;;;;;;;14.36;69.57;96941.91;5001721;28;20497;-61
2023/10/22 03:03:03;;;;;;;1.30;1.30;;;;;;;14.83;69.40;97000.06;4987001;28;20054;-62
2023/10/22 03:05:34;;;;;;;1.48;1.48;;;;;;;15.02;69.18;97013.59;4986904;28;20061;-62
2023/10/22 03:08:01;;;;;;;1.50;1.50;;;;;;;14.63;69.39;96962.63;4985220;28;20054;-62
2023/10/22 03:10:28;;;;;;;1.30;1.30;;;;;;;15.03;69.35;97021.56;4986081;28;20420;-62
2023/10/22 03:12:54;;;;;;;1.33;1.33;;;;;;;14.95;68.86;97002.47;4986777;28;20054;-63
2023/10/22 03:15:21;;;;;;;1.30;1.30;;;;;;;14.96;68.59;97012.41;4986313;28;20050;-63
2023/10/22 03:17:48;;;;;;;1.40;1.40;;;;;;;15.14;68.29;97032.75;4986022;28;20138;-63
2023/10/22 03:20:18;;;;;;;1.50;1.50;;;;;;;15.18;67.33;97039.09;4986241;28;20141;-62
2023/10/22 03:22:45;;;;;;;1.20;1.20;;;;;;;15.17;67.14;97034.72;4986118;28;20525;-62
2023/10/22 03:25:12;;;;;;;1.30;1.30;;;;;;;14.73;67.49;96953.47;4986541;28;20054;-62
2023/10/22 03:27:39;;;;;;;1.30;1.30;;;;;;;14.77;67.41;96971.00;5001299;28;20137;-63
2023/10/22 03:30:06;;;;;;;1.40;1.40;;;;;;;15.03;68.17;97020.78;4986049;28;20061;-63
2023/10/22 03:32:33;;;;;;;1.33;1.33;;;;;;;15.01;68.24;97012.03;4996657;28;20152;-63
2023/10/22 03:35:00;;;;;;;1.40;1.40;;;;;;;15.06;68.27;97008.84;5005705;28;20045;-63
2023/10/22 03:37:26;;;;;;;1.50;1.50;;;;;;;14.90;68.77;97002.88;5003949;28;20060;-62
2023/10/22 03:39:53;;;;;;;1.10;1.10;;;;;;;14.45;69.48;96954.28;5005712;28;20080;-62
2023/10/22 03:42:20;;;;;;;1.27;1.27;;;;;;;14.93;68.81;97013.22;5005131;28;20054;-63
2023/10/22 03:44:46;;;;;;;1.30;1.30;;;;;;;14.87;69.02;97017.63;5003863;28;20053;-62
2023/10/22 03:47:13;;;;;;;1.20;1.20;;;;;;;14.88;68.95;96996.88;5005170;28;20061;-63
2023/10/22 03:49:40;;;;;;;1.20;1.20;;;;;;;14.76;69.56;97000.09;5005267;28;20061;-62
2023/10/22 03:52:06;;;;;;;1.35;1.35;;;;;;;14.09;69.46;96871.03;5004914;28;20061;-64
2023/10/22 03:54:33;;;;;;;1.20;1.20;;;;;;;14.21;69.49;96895.72;5004850;28;20058;-63
2023/10/22 03:57:00;;;;;;;1.35;1.35;;;;;;;14.73;69.62;96964.63;5005466;28;20045;-62
2023/10/22 03:59:27;;;;;;;1.30;1.30;;;;;;;14.57;70.50;96986.53;5004858;28;20050;-63
2023/10/22 04:01:55;;;;;;;1.20;1.20;;;;;;;14.53;71.08;96996.88;5005430;28;20431;-62
2023/10/22 04:04:22;;;;;;;1.38;1.38;;;;;;;14.36;71.63;96997.66;5005288;28;20301;-62
2023/10/22 04:06:49;;;;;;;1.20;1.20;;;;;;;14.34;71.74;96991.66;5003914;28;20528;-62
2023/10/22 04:09:16;;;;;;;1.30;1.30;;;;;;;14.36;71.89;96997.66;5004640;28;20060;-62
2023/10/22 04:11:42;;;;;;;1.17;1.17;;;;;;;13.93;71.45;96920.72;5003587;28;20061;-62
2023/10/22 04:14:09;;;;;;;1.38;1.38;;;;;;;14.31;72.13;97003.63;5003272;28;20535;-63
2023/10/22 04:16:36;;;;;;;1.20;1.20;;;;;;;14.29;72.40;96994.88;5004501;28;20061;-63
2023/10/22 04:19:03;;;;;;;1.17;1.17;;;;;;;12.08;73.04;96663.88;5004529;28;20060;-63
2023/10/22 04:21:29;;;;;;;1.20;1.20;;;;;;;14.03;73.54;97023.81;5004948;28;20239;-63
2023/10/22 04:23:56;;;;;;;1.23;1.23;;;;;;;13.94;74.13;97015.03;5004939;28;20093;-63
2023/10/22 04:26:23;;;;;;;1.25;1.25;;;;;;;13.34;74.27;96934.06;5004989;28;20069;-63
2023/10/22 04:28:49;;;;;;;1.25;1.25;;;;;;;14.04;74.01;97008.69;5003088;28;20050;-63
2023/10/22 04:31:16;;;;;;;1.10;1.10;;;;;;;14.13;73.95;96999.97;5004950;28;20282;-63
2023/10/22 04:33:43;;;;;;;1.20;1.20;;;;;;;13.59;76.61;97007.31;5002820;28;20050;-63
2023/10/22 04:36:18;;;;;;;1.20;1.20;;;;;;;13.95;75.59;97010.25;5004826;28;20050;-63
2023/10/22 04:38:46;;;;;;;1.20;1.20;;;;;;;13.81;76.17;96999.06;5002988;28;20524;-62
2023/10/22 04:41:13;;;;;;;1.08;1.08;;;;;;;13.92;75.57;96997.13;5004618;28;20081;-62
2023/10/22 04:43:41;;;;;;;1.02;1.02;;;;;;;13.95;75.34;97029.75;5003327;28;20049;-63
2023/10/22 04:46:07;;;;;;;1.10;1.10;;;;;;;13.62;75.33;96975.94;5004361;28;20136;-63
2023/10/22 04:48:34;;;;;;;1.10;1.10;;;;;;;13.86;75.30;96991.16;5003486;28;20057;-63
2023/10/22 04:51:06;;;;;;;1.30;1.30;;;;;;;13.90;75.93;97007.84;5004816;28;20077;-63
2023/10/22 04:53:36;;;;;;;1.25;1.25;;;;;;;13.93;75.11;96979.22;5004429;28;20112;-63
2023/10/22 04:56:05;;;;;;;1.30;1.30;;;;;;;14.15;74.51;97003.94;5004779;28;20060;-63
2023/10/22 04:58:33;;;;;;;1.40;1.40;;;;;;;14.24;74.13;97001.59;5002745;28;20433;-63
2023/10/22 05:00:59;;;;;;;1.10;1.10;;;;;;;14.22;73.96;96997.59;5004017;28;20145;-62
2023/10/22 05:03:26;;;;;;;1.27;1.27;;;;;;;13.85;74.02;96925.50;5003909;28;20129;-60
2023/10/22 05:05:55;;;;;;;1.10;1.10;;;;;;;14.37;73.46;97021.56;5004400;28;20053;-62
2023/10/22 05:08:26;;;;;;;1.17;1.17;;;;;;;14.31;73.78;97023.91;5002801;28;20547;-61
2023/10/22 05:10:53;;;;;;;1.35;1.35;;;;;;;14.25;73.50;96985.69;5003591;28;20060;-61
2023/10/22 05:13:22;;;;;;;1.35;1.35;;;;;;;14.15;73.40;96989.22;5002449;28;20050;-61
2023/10/22 05:15:50;;;;;;;1.20;1.20;;;;;;;14.44;73.83;97027.13;5004182;28;20240;-63
2023/10/22 05:18:18;;;;;;;1.10;1.10;;;;;;;14.51;73.78;97035.50;5004253;28;20054;-62
2023/10/22 05:20:44;;;;;;;1.25;1.25;;;;;;;14.68;73.12;97032.75;5004176;28;20567;-62
2023/10/22 05:23:11;;;;;;;1.20;1.20;;;;;;;14.69;73.08;97022.38;5004136;28;20050;-62
2023/10/22 05:25:38;;;;;;;1.33;1.33;;;;;;;14.72;73.02;97016.00;5004215;28;20045;-62
2023/10/22 05:28:05;;;;;;;1.40;1.40;;;;;;;14.92;72.46;97031.16;5003242;28;20525;-62
2023/10/22 05:30:32;;;;;;;1.20;1.20;;;;;;;14.71;71.97;96980.97;5002883;28;20052;-62
2023/10/22 05:32:59;;;;;;;1.50;1.50;;;;;;;15.20;71.71;97047.88;5007282;28;20084;-63
2023/10/22 05:35:27;;;;;;;1.38;1.38;;;;;;;14.82;71.25;96984.53;5006864;28;20721;-62
2023/10/22 05:37:53;;;;;;;1.40;1.40;;;;;;;15.40;70.50;97040.69;5007314;28;20064;-63
2023/10/22 05:40:20;;;;;;;1.35;1.35;;;;;;;15.47;70.04;97051.06;5006861;28;20092;-62
2023/10/22 05:42:47;;;;;;;1.30;1.30;;;;;;;15.67;69.62;97050.22;5007181;28;20058;-62
2023/10/22 05:45:13;;;;;;;1.60;1.60;;;;;;;15.21;69.29;96971.31;5007587;28;20056;-63
2023/10/22 05:47:40;;;;;;;1.70;1.70;;;;;;;15.87;69.13;97056.91;5007312;28;20103;-62
2023/10/22 05:50:07;;;;;;;1.30;1.30;;;;;;;16.03;68.68;97068.44;5007632;28;20539;-62
2023/10/22 05:52:34;;;;;;;1.40;1.40;;;;;;;16.14;68.40;97066.41;5007827;28;20076;-62
2023/10/22 05:55:01;;;;;;;1.50;1.50;;;;;;;16.12;68.71;97054.81;5007404;28;20197;-63
2023/10/22 05:57:28;;;;;;;1.50;1.50;;;;;;;16.33;68.66;97040.75;5007434;28;20061;-63
2023/10/22 05:59:57;;;;;;;1.48;1.48;;;;;;;16.55;68.15;97033.03;5007360;28;20085;-62
2023/10/22 06:02:24;;;;;;;1.60;1.60;;;;;;;16.53;66.77;96990.72;5007124;28;20487;-62
2023/10/22 06:04:51;;;;;;;1.60;1.60;;;;;;;16.96;65.67;97030.38;5006995;28;20100;-62
2023/10/22 06:07:18;;;;;;;1.65;1.65;;;;;;;16.82;66.21;97038.88;5007572;28;20053;-62
2023/10/22 06:09:45;;;;;;;1.45;1.45;;;;;;;16.66;66.70;97044.19;5005589;28;20494;-63
2023/10/22 06:12:11;;;;;;;1.60;1.60;;;;;;;16.47;67.32;97037.13;5006671;28;20777;-62
2023/10/22 06:14:38;;;;;;;1.80;1.80;;;;;;;16.44;67.17;97005.16;5007160;28;20081;-62
2023/10/22 06:17:05;;;;;;;1.52;1.52;;;;;;;16.22;67.16;96969.31;5006932;28;20054;-62
2023/10/22 06:19:32;;;;;;;1.70;1.70;;;;;;;16.71;67.02;97046.56;5005244;28;20073;-63
2023/10/22 06:21:59;;;;;;;1.60;1.60;;;;;;;16.78;66.68;97040.88;5006577;28;20085;-62
2023/10/22 06:24:25;;;;;;;1.88;1.88;;;;;;;16.79;66.59;97054.47;5006584;28;20046;-62
2023/10/22 06:26:52;;;;;;;1.83;1.83;;;;;;;16.69;66.93;97043.38;5006726;28;20077;-62
2023/10/22 06:29:19;;;;;;;1.67;1.67;;;;;;;16.78;66.72;97040.88;5005366;28;20057;-62
2023/10/22 06:31:46;;;;;;;1.85;1.85;;;;;;;16.81;66.82;97040.06;5006663;28;20058;-62
2023/10/22 06:34:12;;;;;;;1.60;1.60;;;;;;;16.80;66.74;97039.28;5006678;28;20046;-63
2023/10/22 06:36:39;;;;;;;1.65;1.65;;;;;;;16.69;66.72;97018.19;5005384;28;20046;-62
2023/10/22 06:39:08;;;;;;;1.80;1.80;;;;;;;16.67;66.84;96995.41;5006424;28;20512;-63
2023/10/22 06:41:35;;;;;;;1.60;1.60;;;;;;;17.08;66.78;97057.84;5006434;28;20081;-63
2023/10/22 06:44:03;;;;;;;1.60;1.60;;;;;;;16.55;67.40;97005.88;5005116;28;20125;-62
2023/10/22 06:46:29;;;;;;;1.50;1.50;;;;;;;16.90;67.23;97055.19;5006438;28;20156;-62
2023/10/22 06:48:56;;;;;;;1.73;1.73;;;;;;;17.02;66.47;97039.91;5005994;28;20061;-62
2023/10/22 06:51:23;;;;;;;1.67;1.67;;;;;;;16.71;65.64;96977.41;5006730;28;20128;-62
2023/10/22 06:53:49;;;;;;;1.70;1.70;;;;;;;17.25;64.87;97007.31;5006141;28;20053;-61
2023/10/22 06:56:16;;;;;;;1.70;1.70;;;;;;;17.40;64.44;97010.75;5021499;28;20052;-62
2023/10/22 06:58:44;;;;;;;1.90;1.90;;;;;;;17.62;64.32;97023.38;5005925;28;20053;-62
2023/10/22 07:01:13;;;;;;;2.00;2.00;;;;;;;17.87;64.02;97029.47;5006437;28;20057;-63
2023/10/22 07:03:43;;;;;;;1.95;1.95;;;;;;;17.93;63.17;96999.78;5005973;28;20056;-62
2023/10/22 07:06:10;;;;;;;2.08;2.08;;;;;;;18.22;62.85;97012.22;5006338;28;20143;-63
2023/10/22 07:08:37;;;;;;;2.08;2.08;;;;;;;18.14;62.13;96965.88;5005494;28;20509;-62
2023/10/22 07:11:04;;;;;;;1.85;1.85;;;;;;;18.63;62.28;97017.66;5005596;28;20185;-62
2023/10/22 07:13:31;;;;;;;1.90;1.90;;;;;;;18.32;63.03;96983.22;5005774;28;20060;-62
2023/10/22 07:15:57;;;;;;;2.03;2.03;;;;;;;18.65;62.91;97030.06;5005555;28;20057;-63
2023/10/22 07:18:24;;;;;;;1.75;1.75;;;;;;;17.96;65.09;96993.31;5005638;28;20050;-63
2023/10/22 07:20:51;;;;;;;1.95;1.95;;;;;;;18.57;64.95;97031.41;5005739;28;20054;-62
2023/10/22 07:23:18;;;;;;;2.03;2.03;;;;;;;17.97;64.38;96905.25;5005973;28;20058;-63
2023/10/22 07:25:46;;;;;;;2.15;2.15;;;;;;;18.94;63.89;97036.84;5005990;28;20462;-63
2023/10/22 07:28:15;;;;;;;2.20;2.20;;;;;;;18.45;63.03;96897.31;5005738;28;20558;-62
2023/10/22 07:30:47;;;;;;;2.42;2.35;;;;;;;19.51;62.33;97020.63;5005541;28;20057;-62
2023/10/22 07:33:13;;;;;;;2.28;2.28;;;;;;;19.64;61.99;97022.81;5005080;28;20437;-63
2023/10/22 07:35:40;;;;;;;1.98;1.98;;;;;;;20.03;61.02;97032.06;5005137;28;20571;-63
2023/10/22 07:38:07;;;;;;;2.00;2.00;;;;;;;20.31;60.13;97027.91;5005589;28;20467;-63
2023/10/22 07:40:35;;;;;;;2.00;2.00;;;;;;;20.30;59.57;97003.81;5005020;28;20053;-63
2023/10/22 07:43:04;;;;;;;2.40;2.30;;;;;;;20.95;59.04;97050.56;5005156;28;20733;-64
2023/10/22 07:45:31;;;;;;;1.90;1.90;;;;;;;20.65;57.58;96988.94;5005336;28;20089;-63
2023/10/22 07:47:58;;;;;;;2.28;2.28;;;;;;;21.34;56.62;97066.59;5005353;28;20138;-63
2023/10/22 07:50:25;;;;;;;2.30;2.30;;;;;;;21.44;57.02;97060.66;5005040;28;20053;-63
2023/10/22 07:52:52;;;;;;;2.72;2.63;;;;;;;21.64;56.23;97057.75;5005019;28;20052;-63
2023/10/22 07:55:18;;;;;;;2.20;2.20;;;;;;;21.27;56.58;96994.28;5003706;28;20484;-63
2023/10/22 07:57:45;;;;;;;2.50;2.40;;;;;;;21.82;56.73;97036.31;5004924;28;20507;-62
2023/10/22 08:00:14;;;;;;;2.65;2.55;;;;;;;22.04;55.91;97037.31;5004563;28;20095;-62
2023/10/22 08:02:40;;;;;;;2.60;2.50;;;;;;;22.03;55.70;97041.38;5005229;28;20064;-63
2023/10/22 08:05:08;;;;;;;2.20;2.20;;;;;;;22.36;55.07;97036.41;5004805;28;20050;-62
2023/10/22 08:07:35;;;;;;;2.53;2.42;;;;;;;21.18;58.28;96980.03;5004773;28;20046;-63
2023/10/22 08:10:01;;;;;;;2.17;2.17;;;;;;;20.50;61.16;96968.75;5002344;28;20116;-63
2023/10/22 08:12:28;;;;;;;2.53;2.42;;;;;;;21.41;60.54;97044.63;5005272;28;20077;-63
2023/10/22 08:14:55;;;;;;;2.50;2.40;;;;;;;21.43;60.12;97019.63;5004972;28;20224;-63
2023/10/22 08:17:22;;;;;;;2.28;2.28;;;;;;;21.56;60.85;97034.56;5004844;28;20132;-63
2023/10/22 08:19:48;;;;;;;2.60;2.50;;;;;;;21.96;59.95;97018.22;5005223;28;20054;-62
2023/10/22 08:22:16;;;;;;;2.20;2.20;;;;;;;21.52;60.20;97000.06;5004929;28;20058;-63
2023/10/22 08:24:50;;;;;;;2.30;2.30;;;;;;;22.30;58.93;97016.38;5004770;28;20053;-62
2023/10/22 08:27:16;;;;;;;2.60;2.50;;;;;;;22.65;57.60;97010.97;5004459;28;20505;-62
2023/10/22 08:29:43;;;;;;;2.72;2.63;;;;;;;22.95;56.45;97021.72;5004394;28;20050;-62
2023/10/22 08:32:10;;;;;;;2.95;2.85;;;;;;;23.31;55.19;97010.84;5004183;28;20618;-61
2023/10/22 08:34:37;;;;;;;2.65;2.55;;;;;;;23.55;54.22;97003.56;5004712;28;20428;-63
2023/10/22 08:37:04;;;;;;;2.95;2.85;;;;;;;23.77;53.51;97004.41;5003084;28;20081;-63
2023/10/22 08:39:31;;;;;;;2.80;2.70;;;;;;;23.99;52.51;96993.91;5002969;28;20054;-62
2023/10/22 08:42:07;;;;;;;2.97;2.88;;;;;;;24.06;52.08;96990.81;5003100;28;20595;-62
2023/10/22 08:44:43;;;;;;;3.13;3.03;;;;;;;24.11;52.47;96998.72;5004278;28;20077;-63
2023/10/22 08:47:10;;;;;;;3.33;3.22;;;;;;;23.80;52.67;96997.81;5004749;28;20457;-63
2023/10/22 08:49:40;;;;;;;3.00;2.90;;;;;;;23.70;53.60;96998.97;5002870;28;20523;-62
2023/10/22 08:52:10;;;;;;;2.70;2.60;;;;;;;23.04;54.55;97004.84;5004698;28;20073;-64
2023/10/22 08:54:37;;;;;;;3.30;3.20;;;;;;;23.51;54.23;96997.22;5004032;28;20052;-63
2023/10/22 08:57:05;;;;;;;2.97;2.88;;;;;;;23.94;53.28;96994.47;5003685;28;20057;-62
2023/10/22 08:59:37;;;;;;;2.83;2.72;;;;;;;23.28;54.18;96975.00;5002423;28;20058;-62
2023/10/22 09:02:12;;;;;;;2.88;2.78;;;;;;;23.79;53.22;96993.38;5004244;28;20064;-62
2023/10/22 09:04:39;;;;;;;2.92;2.83;;;;;;;24.26;51.96;96985.63;5004099;28;20049;-60
2023/10/22 09:07:07;;;;;;;2.67;2.58;;;;;;;24.44;51.26;96985.72;5007421;28;20505;-61
2023/10/22 09:09:36;;;;;;;3.10;3.00;;;;;;;24.54;50.91;96964.72;5007809;28;20058;-61
2023/10/22 09:12:03;;;;;;;2.97;2.88;;;;;;;24.82;50.34;96971.31;5006589;28;20050;-62
2023/10/22 09:14:30;;;;;;;3.17;3.08;;;;;;;25.16;49.28;96957.75;5007511;28;20572;-62
2023/10/22 09:16:57;;;;;;;3.35;3.25;;;;;;;24.59;50.20;96952.78;5007892;28;20520;-62
2023/10/22 09:19:39;;;;;;;3.58;3.47;;;;;;;25.04;50.26;96955.81;5007394;28;20057;-62
2023/10/22 09:22:06;;;;;;;3.45;3.35;;;;;;;25.46;48.47;96936.25;5007480;28;20140;-63
2023/10/22 09:24:34;;;;;;;3.28;3.17;;;;;;;25.90;48.28;96970.78;5007917;28;20060;-63
2023/10/22 09:27:01;;;;;;;3.55;3.45;;;;;;;25.68;47.87;96930.41;5007461;28;20553;-63
2023/10/22 09:29:28;;;;;;;3.63;3.53;;;;;;;26.29;46.97;96942.22;5006368;28;20053;-61
2023/10/22 09:31:55;;;;;;;3.97;3.88;;;;;;;25.93;47.58;96930.09;5007344;28;20049;-62
2023/10/22 09:34:26;;;;;;;3.50;3.40;;;;;;;26.14;47.04;96937.66;5007604;28;20064;-61
2023/10/22 09:36:56;;;;;;;3.92;3.83;;;;;;;26.55;46.09;96914.19;5007575;28;20058;-63
2023/10/22 09:39:42;;;;;;;3.95;3.85;;;;;;;26.41;46.06;96926.25;5006164;28;20056;-62
2023/10/22 09:42:11;;;;;;;3.90;3.80;;;;;;;26.10;46.21;96934.19;5006177;28;20508;-62
2023/10/22 09:44:44;;;;;;;3.60;3.50;;;;;;;26.45;45.78;96930.50;5007072;28;20133;-63
2023/10/22 09:47:23;;;;;;;3.40;3.30;;;;;;;26.18;45.72;96907.03;5007221;28;20547;-62
2023/10/22 09:49:56;;;;;;;3.78;3.67;;;;;;;26.42;44.79;96859.63;5007397;28;20081;-62
2023/10/22 09:52:24;;;;;;;4.10;4.00;;;;;;;26.54;44.96;96930.44;5007279;28;20050;-64
2023/10/22 09:54:54;;;;;;;3.45;3.35;;;;;;;26.93;44.54;96917.22;5007494;28;20776;-63
2023/10/22 09:57:28;;;;;;;3.72;3.63;;;;;;;26.51;44.76;96859.59;5005830;28;20501;-62
2023/10/22 10:00:01;;;;;;;3.75;3.65;;;;;;;26.05;45.90;96920.66;5006819;28;20061;-64
2023/10/22 10:02:28;;;;;;;3.50;3.40;;;;;;;25.20;47.35;96907.34;5006640;28;20069;-61
2023/10/22 10:04:56;;;;;;;3.50;3.40;;;;;;;25.36;46.80;96843.09;5007010;28;20154;-62
2023/10/22 10:07:23;;;;;;;3.45;3.35;;;;;;;25.99;46.29;96891.28;5005457;28;20176;-62
2023/10/22 10:09:52;;;;;;;3.40;3.30;;;;;;;24.95;48.05;96899.09;5006505;28;20543;-63
2023/10/22 10:12:19;;;;;;;3.50;3.40;;;;;;;24.93;48.42;96893.09;5007260;28;20073;-63
2023/10/22 10:14:49;;;;;;;2.92;2.83;;;;;;;24.82;48.46;96861.59;5006570;28;20061;-63
2023/10/22 10:17:18;;;;;;;3.33;3.22;;;;;;;25.23;48.86;96889.38;5006114;28;20489;-62
2023/10/22 10:19:47;;;;;;;3.25;3.15;;;;;;;24.98;49.57;96877.50;5006475;28;20664;-63
2023/10/22 10:22:39;;;;;;;3.38;3.28;;;;;;;25.36;49.33;96885.63;5006912;28;20057;-63
2023/10/22 10:25:30;;;;;;;3.28;3.17;;;;;;;25.66;48.51;96879.00;5005110;28;20054;-63
2023/10/22 10:28:02;;;;;;;3.42;3.33;;;;;;;25.77;48.58;96870.81;5008565;28;20130;-63
2023/10/22 10:30:29;;;;;;;3.60;3.50;;;;;;;25.54;48.86;96857.28;5006765;28;20054;-63
2023/10/22 10:32:56;;;;;;;3.40;3.30;;;;;;;25.75;48.10;96859.16;5006365;28;20440;-63
2023/10/22 10:35:45;;;;;;;3.58;3.47;;;;;;;25.65;48.43;96860.41;5006628;28;20487;-63
2023/10/22 10:38:15;;;;;;;3.20;3.10;;;;;;;26.02;47.70;96853.47;5006951;28;20139;-63
2023/10/22 10:40:43;;;;;;;3.22;3.13;;;;;;;26.16;47.44;96847.88;5006510;28;20060;-63
2023/10/22 10:43:11;;;;;;;3.55;3.45;;;;;;;26.39;47.15;96837.88;4996330;28;20069;-63
2023/10/22 10:45:41;;;;;;;3.75;3.65;;;;;;;26.32;47.47;96838.22;4992372;28;20056;-63
2023/10/22 10:48:42;;;;;;;3.42;3.33;;;;;;;26.49;47.14;96837.34;5006777;28;20054;-63
2023/10/22 10:51:24;;;;;;;3.45;3.35;;;;;;;26.63;46.85;96838.69;5004643;28;20058;-64
2023/10/22 10:54:00;;;;;;;3.28;3.17;;;;;;;26.36;47.00;96844.50;5005106;28;20046;-63
2023/10/22 10:56:58;;;;;;;3.13;3.03;;;;;;;26.18;47.36;96841.72;5004738;28;20046;-63
2023/10/22 10:59:26;;;;;;;3.20;3.10;;;;;;;26.37;47.31;96834.72;5013223;28;20050;-63
2023/10/22 11:02:01;;;;;;;3.90;3.80;;;;;;;25.46;48.69;96807.78;5005981;28;20058;-63
2023/10/22 11:04:31;;;;;;;3.40;3.30;;;;;;;25.72;49.22;96828.91;5004585;28;20077;-63
2023/10/22 11:06:58;;;;;;;3.05;2.95;;;;;;;25.80;48.78;96824.47;5004790;28;20058;-63
2023/10/22 11:09:48;;;;;;;3.20;3.10;;;;;;;25.72;48.74;96789.16;5005660;28;20128;-63
2023/10/22 11:12:14;;;;;;;3.47;3.38;;;;;;;26.21;48.70;96815.19;5006009;28;20050;-63
2023/10/22 11:14:41;;;;;;;3.50;3.40;;;;;;;26.24;48.35;96798.00;5006045;28;20590;-63
2023/10/22 11:17:08;;;;;;;3.60;3.50;;;;;;;26.09;48.68;96802.00;5005595;28;20053;-63
2023/10/22 11:19:35;;;;;;;3.40;3.30;;;;;;;25.60;49.44;96764.56;5004137;28;20061;-63
2023/10/22 11:22:02;;;;;;;2.85;2.75;;;;;;;25.20;50.65;96799.59;5003841;28;20064;-63
2023/10/22 11:24:30;;;;;;;3.35;3.25;;;;;;;25.14;50.89;96804.31;5005596;28;20053;-63
2023/10/22 11:26:59;;;;;;;3.30;3.20;;;;;;;25.57;50.54;96810.94;5004469;28;20053;-63
2023/10/22 11:29:26;;;;;;;3.10;3.00;;;;;;;25.05;50.84;96770.28;5004418;28;20056;-62
2023/10/22 11:31:58;;;;;;;3.35;3.25;;;;;;;25.70;49.34;96772.63;5005843;28;20421;-63
2023/10/22 11:34:25;;;;;;;3.55;3.45;;;;;;;26.02;49.64;96813.72;5004996;28;20054;-63
2023/10/22 11:36:57;;;;;;;3.42;3.33;;;;;;;25.37;51.03;96811.41;5005502;28;20060;-63
2023/10/22 11:39:32;;;;;;;3.30;3.20;;;;;;;25.27;51.01;96804.94;5004935;28;20064;-64